Terminal Aerodrome Forecast
Issued by NWS

Home | Current Version | Previous Version | Text Only | Print | Product List | Glossary On
Versions: 1 2 3 4 5 6 7 8 9 10 11 12 13 14 15 16 17 18 19 20 21 22
000
FTPA31 PHFO 201100
TAFPPG
TAF
NSTU 201120Z 2012/2112 10015KT P6SM VCSH SCT015 BKN040 BKN080
      TEMPO 2012/2016 11017G24KT -SHRA SCT012 BKN030=

USA.gov is the U.S. government's official web portal to all federal, state and local government web resources and services.